Time;durP1;ratioP1;P1;durP2;ratioP2;P2;SDS_P1;SDS_P2;PMS_P1;PMS_P2;Temp;Humidity;BMP_temperature;BMP_pressure;BME280_temperature;BME280_humidity;BME280_pressure;Samples;Min_cycle;Max_cycle;Signal;HPM_P1;HPM_P2
2022/09/24 00:00:56;;;;;;;26.90;20.35;;;15.80;99.90;;;;;;6246516;23;20453;-78
2022/09/24 00:03:23;;;;;;;14.82;10.13;;;15.80;99.90;;;;;;6246478;23;20019;-77
2022/09/24 00:05:50;;;;;;;7.88;7.15;;;15.80;99.90;;;;;;6246776;23;19996;-76
2022/09/24 00:08:18;;;;;;;6.15;5.55;;;15.80;99.90;;;;;;6246594;23;20047;-77
2022/09/24 00:10:45;;;;;;;7.50;5.32;;;15.80;99.90;;;;;;6219724;23;20000;-77
2022/09/24 00:13:15;;;;;;;7.05;5.10;;;15.80;99.90;;;;;;6220409;23;20065;-76
2022/09/24 00:15:46;;;;;;;5.57;5.05;;;15.80;99.90;;;;;;6247549;23;20531;-77
2022/09/24 00:18:14;;;;;;;5.60;5.10;;;15.80;99.90;;;;;;6246813;23;20004;-77
2022/09/24 00:20:40;;;;;;;8.75;4.97;;;15.70;99.90;;;;;;6219251;23;20339;-76
2022/09/24 00:23:07;;;;;;;5.88;4.93;;;15.70;99.90;;;;;;6246334;23;20023;-77
2022/09/24 00:28:17;;;;;;;4.18;3.88;;;15.70;99.90;;;;;;6246388;23;20047;-76
2022/09/24 00:30:43;;;;;;;4.90;4.38;;;15.70;99.90;;;;;;6246258;23;20000;-77
2022/09/24 00:33:10;;;;;;;4.85;4.45;;;15.70;99.90;;;;;;6245924;23;20042;-77
2022/09/24 00:35:40;;;;;;;6.55;4.97;;;15.70;99.90;;;;;;6219065;23;20004;-77
2022/09/24 00:38:06;;;;;;;4.55;4.15;;;15.70;99.90;;;;;;6219152;23;20011;-76
2022/09/24 00:40:35;;;;;;;5.10;4.30;;;15.60;99.90;;;;;;6219699;23;20363;-77
2022/09/24 00:43:01;;;;;;;4.35;4.05;;;15.70;99.90;;;;;;6247019;23;20497;-76
2022/09/24 00:45:30;;;;;;;4.55;4.15;;;15.60;99.90;;;;;;6246411;23;20000;-77
2022/09/24 00:47:57;;;;;;;4.28;3.97;;;15.70;99.90;;;;;;6219948;23;20024;-76
2022/09/24 00:50:30;;;;;;;5.60;4.45;;;15.70;99.90;;;;;;6246963;23;20000;-77
2022/09/24 00:53:03;;;;;;;4.75;4.32;;;15.70;99.90;;;;;;6246850;23;20008;-76
2022/09/24 00:55:32;;;;;;;4.15;3.78;;;15.70;99.90;;;;;;6246338;23;20007;-76
2022/09/24 00:58:02;;;;;;;4.20;3.90;;;15.70;99.90;;;;;;6246857;23;20431;-77
2022/09/24 01:00:29;;;;;;;4.53;4.10;;;15.70;99.90;;;;;;6220061;23;20311;-77
2022/09/24 01:03:06;;;;;;;4.15;3.85;;;15.70;99.90;;;;;;6246849;23;20015;-77
2022/09/24 01:05:32;;;;;;;3.92;3.55;;;15.70;99.90;;;;;;6246673;23;20000;-77
2022/09/24 01:07:57;;;;;;;4.38;3.90;;;15.70;99.90;;;;;;6245943;23;19996;-77
2022/09/24 01:10:59;;;;;;;4.63;4.05;;;15.70;99.90;;;;;;6244588;23;20075;-77
2022/09/24 01:13:39;;;;;;;4.13;3.60;;;15.60;99.90;;;;;;6244818;23;20034;-76
2022/09/24 01:16:15;;;;;;;3.40;3.20;;;15.70;99.90;;;;;;6245995;23;20031;-76
2022/09/24 01:18:50;;;;;;;3.65;3.33;;;15.70;99.90;;;;;;6245721;23;20424;-77
2022/09/24 01:21:24;;;;;;;3.97;3.53;;;15.70;99.90;;;;;;6219774;23;20424;-77
2022/09/24 01:24:02;;;;;;;5.55;3.67;;;15.80;99.90;;;;;;6246756;23;20000;-77
2022/09/24 01:26:46;;;;;;;5.22;3.80;;;15.80;99.90;;;;;;6246608;23;20359;-77
2022/09/24 01:29:31;;;;;;;3.30;3.05;;;15.80;99.90;;;;;;6246457;23;20001;-76
2022/09/24 01:32:06;;;;;;;3.83;3.10;;;15.80;99.90;;;;;;6246451;23;20079;-77
2022/09/24 01:34:46;;;;;;;3.67;2.47;;;15.80;99.90;;;;;;6220003;23;20082;-77
2022/09/24 01:37:16;;;;;;;5.65;2.92;;;15.70;99.90;;;;;;6219540;23;20008;-76
2022/09/24 01:39:45;;;;;;;3.22;2.92;;;15.80;99.90;;;;;;6246236;23;20028;-77
2022/09/24 01:42:12;;;;;;;3.08;2.88;;;15.80;99.90;;;;;;6246448;23;20317;-77
2022/09/24 01:44:41;;;;;;;3.40;3.10;;;15.80;99.90;;;;;;6219359;23;20459;-76
2022/09/24 01:47:08;;;;;;;4.57;3.33;;;15.80;99.90;;;;;;6219314;23;20399;-76
2022/09/24 01:49:33;;;;;;;2.95;2.72;;;15.80;99.90;;;;;;6214241;23;20028;-76
2022/09/24 01:52:05;;;;;;;2.63;2.42;;;15.80;99.90;;;;;;6214455;23;20005;-77
2022/09/24 01:54:36;;;;;;;2.63;2.42;;;15.80;99.90;;;;;;6215972;23;20008;-77
2022/09/24 01:57:19;;;;;;;3.28;2.85;;;15.80;99.90;;;;;;6216085;23;20057;-77
2022/09/24 01:59:54;;;;;;;2.65;2.45;;;15.70;99.90;;;;;;6215829;23;20135;-77
2022/09/24 02:02:24;;;;;;;2.38;2.17;;;15.70;99.90;;;;;;6215684;23;20030;-77
2022/09/24 02:04:57;;;;;;;4.32;2.80;;;15.70;99.90;;;;;;6214140;23;20055;-76
2022/09/24 02:07:30;;;;;;;2.20;2.10;;;15.70;99.90;;;;;;6215375;23;20001;-76
2022/09/24 02:09:55;;;;;;;3.22;2.30;;;15.70;99.90;;;;;;6214283;23;20000;-77
2022/09/24 02:12:40;;;;;;;5.38;2.40;;;15.70;99.90;;;;;;6214483;23;20051;-77
2022/09/24 02:15:16;;;;;;;3.08;1.98;;;15.70;99.90;;;;;;6214549;23;20332;-76
2022/09/24 02:17:47;;;;;;;2.55;2.35;;;15.70;99.90;;;;;;6215306;23;20001;-76
2022/09/24 02:20:17;;;;;;;3.58;2.67;;;15.70;99.90;;;;;;6213978;23;20000;-77
2022/09/24 02:22:46;;;;;;;2.55;2.10;;;15.70;99.90;;;;;;6213668;23;20488;-77
2022/09/24 02:25:17;;;;;;;2.47;2.28;;;15.70;99.90;;;;;;6215676;23;20000;-77
2022/09/24 02:27:42;;;;;;;2.83;2.28;;;15.70;99.90;;;;;;6215900;23;20003;-76
2022/09/24 02:30:09;;;;;;;2.10;2.00;;;15.80;99.90;;;;;;6215204;23;20001;-77
2022/09/24 02:32:38;;;;;;;1.90;1.80;;;15.80;99.90;;;;;;6215707;23;20360;-76
2022/09/24 02:35:07;;;;;;;2.28;2.13;;;15.80;99.90;;;;;;6214075;23;20017;-77
2022/09/24 02:37:35;;;;;;;2.17;2.00;;;15.80;99.90;;;;;;6188732;23;20337;-77
2022/09/24 02:40:03;;;;;;;2.10;2.00;;;15.70;99.90;;;;;;6215442;23;19992;-77
2022/09/24 02:42:30;;;;;;;1.95;1.83;;;15.70;99.90;;;;;;6215518;23;20050;-77
2022/09/24 02:44:58;;;;;;;3.10;1.83;;;15.70;99.90;;;;;;6214104;23;20001;-76
2022/09/24 02:47:24;;;;;;;1.80;1.70;;;15.70;99.90;;;;;;6215442;23;20035;-76
2022/09/24 02:49:50;;;;;;;3.15;1.77;;;15.70;99.90;;;;;;6242079;23;20062;-76
2022/09/24 02:52:17;;;;;;;1.90;1.77;;;15.70;99.90;;;;;;6245598;23;20008;-77
2022/09/24 02:54:43;;;;;;;2.05;1.85;;;15.70;99.90;;;;;;6245780;23;20527;-77
2022/09/24 02:57:09;;;;;;;1.80;1.70;;;15.70;99.90;;;;;;6219146;23;20039;-77
2022/09/24 02:59:35;;;;;;;2.85;2.00;;;15.70;99.90;;;;;;6245634;23;20079;-76
2022/09/24 03:02:01;;;;;;;4.28;2.10;;;15.70;99.90;;;;;;6218640;23;20321;-76
2022/09/24 03:04:29;;;;;;;2.78;2.42;;;15.70;99.90;;;;;;6218540;23;20030;-77
2022/09/24 03:06:55;;;;;;;2.78;2.05;;;15.70;99.90;;;;;;6245956;23;20000;-75
2022/09/24 03:09:21;;;;;;;2.08;1.98;;;15.70;99.90;;;;;;6245436;23;20114;-76
2022/09/24 03:11:46;;;;;;;2.10;2.00;;;15.60;99.90;;;;;;6245990;23;20000;-76
2022/09/24 03:14:12;;;;;;;1.83;1.73;;;15.70;99.90;;;;;;6218587;23;20462;-76
2022/09/24 03:16:38;;;;;;;2.00;1.90;;;15.70;99.90;;;;;;6218976;23;20428;-77
2022/09/24 03:19:05;;;;;;;2.60;2.03;;;15.70;99.90;;;;;;6245323;23;20031;-77
2022/09/24 03:21:31;;;;;;;2.60;1.90;;;15.80;99.90;;;;;;6245662;23;20023;-77
2022/09/24 03:23:56;;;;;;;2.10;2.00;;;15.80;99.90;;;;;;6245393;23;20412;-76
2022/09/24 03:26:22;;;;;;;1.88;1.77;;;15.80;99.90;;;;;;6245731;23;19996;-77
2022/09/24 03:28:48;;;;;;;2.63;2.00;;;15.80;99.90;;;;;;6245640;23;20309;-76
2022/09/24 03:31:14;;;;;;;2.08;1.80;;;15.80;99.90;;;;;;6245783;23;20079;-77
2022/09/24 03:33:45;;;;;;;2.03;1.83;;;15.80;99.90;;;;;;6245042;23;20078;-77
2022/09/24 03:36:15;;;;;;;2.28;2.17;;;15.80;99.90;;;;;;6218691;23;20015;-77
2022/09/24 03:38:42;;;;;;;2.10;2.00;;;15.80;99.90;;;;;;6245537;23;20008;-76
2022/09/24 03:41:10;;;;;;;1.85;1.75;;;15.80;99.90;;;;;;6218578;23;20011;-76
2022/09/24 03:43:36;;;;;;;1.98;1.77;;;15.80;99.90;;;;;;6245243;23;20424;-77
2022/09/24 03:46:05;;;;;;;1.88;1.77;;;15.80;99.90;;;;;;6245564;23;20000;-77
2022/09/24 03:48:32;;;;;;;3.42;1.70;;;15.80;99.90;;;;;;6245200;23;20012;-77
2022/09/24 03:51:05;;;;;;;1.95;1.85;;;15.80;99.90;;;;;;6217934;23;20020;-77
2022/09/24 03:53:31;;;;;;;2.42;2.33;;;15.80;99.90;;;;;;6245738;23;20000;-77
2022/09/24 03:55:58;;;;;;;2.22;1.80;;;15.80;99.90;;;;;;6218480;23;20014;-77
2022/09/24 03:58:24;;;;;;;2.28;1.95;;;15.80;99.90;;;;;;6245107;23;20019;-76
2022/09/24 04:00:52;;;;;;;2.50;2.30;;;15.80;99.90;;;;;;6245210;23;20000;-76
2022/09/24 04:03:18;;;;;;;2.80;1.90;;;15.80;99.90;;;;;;6218320;23;20004;-77
2022/09/24 04:05:44;;;;;;;2.72;2.15;;;15.80;99.90;;;;;;6245553;23;20000;-76
2022/09/24 04:08:10;;;;;;;2.00;1.90;;;15.90;99.90;;;;;;6245208;23;20004;-77
2022/09/24 04:10:35;;;;;;;2.67;1.73;;;15.80;99.90;;;;;;6245128;23;20008;-76
2022/09/24 04:13:01;;;;;;;1.92;1.77;;;15.80;99.90;;;;;;6244606;23;20000;-76
2022/09/24 04:15:27;;;;;;;1.60;1.50;;;15.80;99.90;;;;;;6244195;23;20014;-77
2022/09/24 04:17:55;;;;;;;2.78;1.77;;;15.70;99.90;;;;;;6242909;23;20008;-77
2022/09/24 04:20:23;;;;;;;3.15;2.83;;;15.80;99.90;;;;;;6242347;23;20080;-77
2022/09/24 04:22:49;;;;;;;4.13;2.20;;;15.80;99.90;;;;;;6217100;23;20046;-76
2022/09/24 04:25:16;;;;;;;1.92;1.83;;;15.90;99.90;;;;;;6217939;23;20001;-77
2022/09/24 04:27:45;;;;;;;2.30;2.10;;;15.90;99.90;;;;;;6218366;23;20007;-76
2022/09/24 04:30:14;;;;;;;1.58;1.48;;;15.80;99.90;;;;;;6245258;23;19996;-76
2022/09/24 04:32:40;;;;;;;1.95;1.70;;;15.70;99.90;;;;;;6218164;23;20007;-76
2022/09/24 04:35:07;;;;;;;2.70;1.83;;;15.70;99.90;;;;;;6218339;23;20482;-76
2022/09/24 04:37:33;;;;;;;7.95;1.90;;;15.70;99.90;;;;;;6245464;23;20067;-76
2022/09/24 04:39:59;;;;;;;2.13;1.85;;;15.70;99.90;;;;;;6244861;23;20004;-77
2022/09/24 04:42:24;;;;;;;1.88;1.63;;;15.70;99.90;;;;;;6245417;23;20000;-77
2022/09/24 04:44:50;;;;;;;1.60;1.50;;;15.70;99.90;;;;;;6245455;23;20476;-76
2022/09/24 04:47:16;;;;;;;2.30;1.90;;;15.70;99.90;;;;;;6220126;23;20004;-77
2022/09/24 04:49:44;;;;;;;1.80;1.70;;;15.70;99.90;;;;;;6214928;23;20023;-76
2022/09/24 04:52:13;;;;;;;1.67;1.58;;;15.70;99.90;;;;;;6215127;23;20425;-77
2022/09/24 04:54:41;;;;;;;4.40;2.00;;;15.70;99.90;;;;;;6216620;23;20024;-76
2022/09/24 04:57:07;;;;;;;3.72;1.90;;;15.70;99.90;;;;;;6216501;23;20012;-76
2022/09/24 04:59:33;;;;;;;1.65;1.55;;;15.70;99.90;;;;;;6216492;23;20092;-76
2022/09/24 05:01:58;;;;;;;2.20;2.05;;;15.70;99.90;;;;;;6216732;23;20001;-76
2022/09/24 05:04:24;;;;;;;3.42;1.88;;;15.80;99.90;;;;;;6216588;23;20001;-76
2022/09/24 05:06:50;;;;;;;2.05;1.95;;;15.80;99.90;;;;;;6215040;23;20032;-76
2022/09/24 05:09:15;;;;;;;2.08;1.90;;;15.80;99.90;;;;;;6216633;23;20008;-76
2022/09/24 05:11:41;;;;;;;3.58;2.00;;;15.90;99.90;;;;;;6216370;23;20356;-76
2022/09/24 05:14:07;;;;;;;1.85;1.65;;;15.80;99.90;;;;;;6216493;23;20001;-77
2022/09/24 05:16:33;;;;;;;4.85;1.92;;;15.90;99.90;;;;;;6216498;23;19997;-76
2022/09/24 05:18:58;;;;;;;2.17;2.00;;;15.90;99.90;;;;;;6216235;23;20031;-76
2022/09/24 05:21:24;;;;;;;4.15;1.80;;;15.80;99.90;;;;;;6216496;23;20042;-77
2022/09/24 05:23:50;;;;;;;1.88;1.58;;;15.90;99.90;;;;;;6216272;23;20051;-76
2022/09/24 05:29:00;;;;;;;2.47;2.30;;;15.90;99.90;;;;;;6216245;23;20019;-77
2022/09/24 05:31:26;;;;;;;1.88;1.67;;;15.80;99.90;;;;;;6216557;23;20083;-76
2022/09/24 05:33:52;;;;;;;2.08;1.88;;;15.90;99.90;;;;;;6214852;23;20084;-76
2022/09/24 05:36:18;;;;;;;2.78;2.10;;;15.90;99.90;;;;;;6212254;23;20267;-77
2022/09/24 05:38:44;;;;;;;1.85;1.75;;;15.90;99.90;;;;;;6211979;23;20012;-78
2022/09/24 05:41:09;;;;;;;2.22;2.13;;;15.90;99.90;;;;;;6213803;23;20038;-78
2022/09/24 05:43:35;;;;;;;2.00;1.90;;;15.90;99.90;;;;;;6213852;23;20091;-78
2022/09/24 05:46:01;;;;;;;2.53;2.05;;;15.90;99.90;;;;;;6213737;23;19997;-78
2022/09/24 05:48:27;;;;;;;2.50;2.30;;;15.90;99.90;;;;;;6222378;23;20016;-78
2022/09/24 05:50:56;;;;;;;3.22;2.08;;;15.90;99.90;;;;;;6244005;23;20497;-78
2022/09/24 05:53:22;;;;;;;2.50;1.83;;;15.90;99.90;;;;;;6217501;23;20004;-77
2022/09/24 05:55:48;;;;;;;2.25;1.95;;;16.00;99.90;;;;;;6244922;23;20004;-77
2022/09/24 05:58:14;;;;;;;2.22;2.03;;;16.00;99.90;;;;;;6244893;23;20085;-76
2022/09/24 06:00:39;;;;;;;2.17;2.08;;;16.00;99.90;;;;;;6243842;23;20451;-77
2022/09/24 06:03:10;;;;;;;3.45;2.63;;;16.00;99.90;;;;;;6244050;23;19993;-77
2022/09/24 06:05:36;;;;;;;2.45;2.15;;;16.00;99.90;;;;;;6244117;23;20004;-76
2022/09/24 06:08:03;;;;;;;2.30;2.10;;;16.10;99.90;;;;;;6243559;23;20337;-77
2022/09/24 06:10:29;;;;;;;3.95;1.92;;;16.10;99.90;;;;;;6216849;23;20519;-77
2022/09/24 06:12:55;;;;;;;3.55;2.03;;;16.10;99.90;;;;;;6216725;23;20087;-77
2022/09/24 06:15:21;;;;;;;4.45;2.53;;;16.10;99.90;;;;;;6243803;23;19999;-76
2022/09/24 06:17:47;;;;;;;2.30;2.10;;;16.20;99.90;;;;;;6216587;23;20047;-77
2022/09/24 06:20:13;;;;;;;5.13;2.25;;;16.20;99.90;;;;;;6216957;23;20079;-77
2022/09/24 06:22:39;;;;;;;10.15;2.53;;;16.20;99.90;;;;;;6242181;23;20447;-76
2022/09/24 06:25:06;;;;;;;3.13;2.50;;;16.20;99.90;;;;;;6241451;23;20000;-76
2022/09/24 06:27:31;;;;;;;4.60;2.55;;;16.20;99.90;;;;;;6241270;23;20003;-76
2022/09/24 06:29:57;;;;;;;2.58;2.25;;;16.20;99.90;;;;;;6241467;23;20456;-76
2022/09/24 06:32:23;;;;;;;4.05;2.25;;;16.20;99.90;;;;;;6217774;23;20508;-77
2022/09/24 06:34:49;;;;;;;2.53;1.92;;;16.30;99.90;;;;;;6245179;23;20375;-77
2022/09/24 06:37:15;;;;;;;2.13;1.92;;;16.30;99.90;;;;;;6244524;23;19996;-77
2022/09/24 06:39:41;;;;;;;2.03;1.83;;;16.30;99.90;;;;;;6244463;23;20004;-76
2022/09/24 06:42:07;;;;;;;2.38;1.83;;;16.30;99.90;;;;;;6243432;23;20030;-76
2022/09/24 06:44:33;;;;;;;2.03;1.92;;;16.40;99.90;;;;;;6217218;23;20000;-76
2022/09/24 06:47:00;;;;;;;2.10;1.90;;;16.40;99.90;;;;;;6217054;23;20004;-77
2022/09/24 06:49:26;;;;;;;4.05;2.58;;;16.40;99.90;;;;;;6212086;23;20017;-76
2022/09/24 06:51:57;;;;;;;2.35;2.25;;;16.40;99.90;;;;;;6214468;23;20015;-76
2022/09/24 06:54:23;;;;;;;2.85;1.90;;;16.40;99.90;;;;;;6215647;23;19993;-76
2022/09/24 06:56:51;;;;;;;1.90;1.80;;;16.50;99.90;;;;;;6215468;23;20054;-76
2022/09/24 06:59:17;;;;;;;2.33;2.10;;;16.50;99.90;;;;;;6214588;23;20008;-77
2022/09/24 07:01:43;;;;;;;3.28;2.75;;;16.50;99.90;;;;;;6212340;23;20039;-76
2022/09/24 07:04:09;;;;;;;4.05;2.00;;;16.50;99.90;;;;;;6211771;23;20432;-76
2022/09/24 07:09:20;;;;;;;3.47;2.13;;;16.60;99.90;;;;;;6213175;23;20021;-76
2022/09/24 07:11:45;;;;;;;1.75;1.65;;;16.60;99.90;;;;;;6215260;23;20559;-77
2022/09/24 07:14:12;;;;;;;3.33;2.00;;;16.60;99.90;;;;;;6213621;23;20043;-77
2022/09/24 07:16:38;;;;;;;4.90;2.28;;;16.70;99.90;;;;;;6214896;23;20007;-76
2022/09/24 07:19:04;;;;;;;2.33;1.83;;;16.70;99.90;;;;;;6212216;23;20009;-77
2022/09/24 07:21:30;;;;;;;2.08;1.85;;;16.70;99.90;;;;;;6214040;23;19996;-77
2022/09/24 07:23:55;;;;;;;2.30;2.20;;;16.80;99.90;;;;;;6215137;23;20454;-76
2022/09/24 07:26:21;;;;;;;3.25;2.00;;;16.80;99.90;;;;;;6213117;23;20621;-77
2022/09/24 07:28:47;;;;;;;2.22;2.05;;;16.80;99.90;;;;;;6215098;23;20000;-76
2022/09/24 07:31:12;;;;;;;3.08;1.90;;;16.80;99.90;;;;;;6215309;23;20000;-76
2022/09/24 07:33:38;;;;;;;5.00;2.03;;;16.80;99.90;;;;;;6215104;23;20409;-76
2022/09/24 07:36:08;;;;;;;2.63;2.38;;;16.90;99.90;;;;;;6215116;23;20342;-77
2022/09/24 07:38:35;;;;;;;4.47;2.33;;;16.90;99.90;;;;;;6215289;23;20013;-77
2022/09/24 07:41:06;;;;;;;3.75;2.95;;;16.90;99.90;;;;;;6215583;23;19996;-77
2022/09/24 07:43:32;;;;;;;2.33;2.08;;;17.00;99.90;;;;;;6213680;23;20005;-76
2022/09/24 07:45:58;;;;;;;2.20;1.90;;;17.00;99.90;;;;;;6215418;23;20055;-77
2022/09/24 07:48:24;;;;;;;3.35;1.95;;;17.00;99.90;;;;;;6223568;23;20027;-77
2022/09/24 07:50:50;;;;;;;1.98;1.77;;;17.00;99.90;;;;;;6218768;23;20004;-76
2022/09/24 07:53:16;;;;;;;2.33;2.10;;;17.10;99.90;;;;;;6218321;23;20004;-77
2022/09/24 07:55:41;;;;;;;2.13;1.88;;;17.10;99.90;;;;;;6245395;23;20329;-77
2022/09/24 07:58:13;;;;;;;2.92;1.95;;;17.20;99.90;;;;;;6245112;23;20000;-77
2022/09/24 08:00:39;;;;;;;3.17;2.20;;;17.20;99.90;;;;;;6218068;23;20004;-77
2022/09/24 08:03:06;;;;;;;3.20;2.47;;;17.30;99.90;;;;;;6245045;23;20331;-77
2022/09/24 08:05:32;;;;;;;2.67;2.13;;;17.30;99.90;;;;;;6217470;23;20429;-76
2022/09/24 08:07:59;;;;;;;2.20;1.88;;;17.40;99.90;;;;;;6245091;23;20119;-77
2022/09/24 08:10:27;;;;;;;2.40;1.95;;;17.40;99.90;;;;;;6245053;23;20447;-76
2022/09/24 08:12:53;;;;;;;1.92;1.80;;;17.40;99.90;;;;;;6244938;23;20442;-76
2022/09/24 08:15:19;;;;;;;3.30;2.30;;;17.50;99.90;;;;;;6243007;23;19996;-77
2022/09/24 08:17:45;;;;;;;2.10;2.00;;;17.50;99.90;;;;;;6213611;23;20005;-76
2022/09/24 08:20:11;;;;;;;2.92;2.13;;;17.60;99.90;;;;;;6241895;23;20000;-77
2022/09/24 08:22:37;;;;;;;1.98;1.88;;;17.60;99.90;;;;;;6247073;23;19996;-76
2022/09/24 08:25:04;;;;;;;3.45;2.13;;;17.60;99.90;;;;;;6247038;23;19996;-76
2022/09/24 08:27:31;;;;;;;2.63;1.80;;;17.70;99.90;;;;;;6245321;23;19996;-77
2022/09/24 08:29:59;;;;;;;2.83;2.03;;;17.70;99.90;;;;;;6244842;23;20091;-76
2022/09/24 08:32:25;;;;;;;2.25;1.48;;;17.70;99.90;;;;;;6217684;23;20275;-77
2022/09/24 08:34:51;;;;;;;3.13;1.60;;;17.80;99.90;;;;;;6244739;23;20024;-77
2022/09/24 08:37:16;;;;;;;4.43;1.77;;;17.80;99.90;;;;;;6244677;23;20000;-76
2022/09/24 08:39:42;;;;;;;2.78;1.85;;;17.80;99.90;;;;;;6217737;23;20004;-77
2022/09/24 08:42:32;;;;;;;3.35;1.88;;;17.80;99.90;;;;;;6244635;23;20001;-77
2022/09/24 08:48:02;;;;;;;2.65;1.98;;;17.90;99.90;;;;;;6244453;23;20015;-77
2022/09/24 08:50:31;;;;;;;1.50;1.40;;;17.90;99.90;;;;;;6244503;23;20020;-77
2022/09/24 08:53:15;;;;;;;1.88;1.58;;;17.90;99.90;;;;;;6244747;23;20005;-76
2022/09/24 08:56:08;;;;;;;2.83;1.70;;;18.00;99.90;;;;;;6244463;23;20047;-76
2022/09/24 08:58:57;;;;;;;4.90;1.90;;;18.00;99.90;;;;;;6237989;23;20008;-76
2022/09/24 09:01:31;;;;;;;4.63;1.90;;;18.10;99.90;;;;;;6244485;23;20003;-76
2022/09/24 09:04:24;;;;;;;1.67;1.48;;;18.10;99.90;;;;;;6244401;23;20035;-77
2022/09/24 09:07:18;;;;;;;1.55;1.45;;;18.10;99.90;;;;;;6217558;23;20243;-76
2022/09/24 09:10:07;;;;;;;2.42;1.80;;;18.10;99.90;;;;;;6244270;23;20398;-76
2022/09/24 09:12:39;;;;;;;4.65;2.72;;;18.10;99.90;;;;;;6191805;23;20054;-77
2022/09/24 09:15:20;;;;;;;3.67;2.20;;;18.10;99.90;;;;;;6244492;23;20079;-77
2022/09/24 09:18:20;;;;;;;6.13;2.78;;;18.20;99.90;;;;;;6244310;23;20010;-76
2022/09/24 09:20:48;;;;;;;4.88;2.45;;;18.20;99.90;;;;;;6236662;23;20091;-77
2022/09/24 09:23:47;;;;;;;4.75;2.75;;;18.10;99.90;;;;;;6244059;23;20034;-76
2022/09/24 09:26:13;;;;;;;4.72;2.58;;;18.20;99.90;;;;;;6244257;23;19999;-76
2022/09/24 09:28:39;;;;;;;3.38;2.30;;;18.10;99.90;;;;;;6217285;23;20015;-77
2022/09/24 09:31:06;;;;;;;6.85;2.42;;;18.20;99.90;;;;;;6244088;23;20042;-76
2022/09/24 09:33:44;;;;;;;4.35;2.70;;;18.20;99.90;;;;;;6217314;23;20008;-77
2022/09/24 09:36:27;;;;;;;5.95;2.40;;;18.20;99.90;;;;;;6244144;23;20005;-76
2022/09/24 09:39:00;;;;;;;6.28;2.60;;;18.20;99.90;;;;;;6216995;23;20379;-76
2022/09/24 09:41:45;;;;;;;4.90;2.38;;;18.20;99.90;;;;;;6217193;23;20432;-76
2022/09/24 09:44:36;;;;;;;5.18;2.50;;;18.20;99.90;;;;;;6244049;23;20469;-76
2022/09/24 09:47:23;;;;;;;8.95;2.28;;;18.20;99.90;;;;;;6244118;23;20303;-77
2022/09/24 09:49:52;;;;;;;4.35;2.08;;;18.20;99.90;;;;;;6243753;23;20016;-76
2022/09/24 09:52:26;;;;;;;5.85;2.70;;;18.20;99.90;;;;;;6243885;23;20004;-76
2022/09/24 09:54:51;;;;;;;4.68;2.50;;;18.20;99.90;;;;;;6244003;23;20082;-76
2022/09/24 09:57:25;;;;;;;4.78;2.50;;;18.20;99.90;;;;;;6243735;23;20028;-76
2022/09/24 09:59:53;;;;;;;2.58;2.38;;;18.20;99.90;;;;;;6216900;23;20091;-76
2022/09/24 10:02:33;;;;;;;3.80;2.55;;;18.30;99.90;;;;;;6243953;23;19996;-76
2022/09/24 10:05:04;;;;;;;4.85;3.00;;;18.30;99.90;;;;;;6243947;23;20007;-76
2022/09/24 10:07:31;;;;;;;5.57;3.40;;;18.30;99.90;;;;;;6216606;23;20075;-77
2022/09/24 10:10:12;;;;;;;3.42;2.92;;;18.30;99.90;;;;;;6244147;23;20010;-76
2022/09/24 10:12:37;;;;;;;5.32;3.05;;;18.30;99.90;;;;;;6216845;23;20028;-76
2022/09/24 10:15:14;;;;;;;9.85;3.20;;;18.30;99.90;;;;;;6242025;23;20314;-76
2022/09/24 10:17:41;;;;;;;5.22;2.88;;;18.30;99.90;;;;;;6241532;23;20428;-77
2022/09/24 10:20:28;;;;;;;2.90;2.70;;;18.30;99.90;;;;;;6241351;23;20348;-76
2022/09/24 10:23:01;;;;;;;4.05;2.88;;;18.30;99.90;;;;;;6214691;23;20066;-76
2022/09/24 10:25:28;;;;;;;3.50;2.80;;;18.30;99.90;;;;;;6241515;23;20098;-76
2022/09/24 10:30:32;;;;;;;5.93;3.17;;;18.30;99.90;;;;;;6214554;23;20379;-76
2022/09/24 10:31:15;;;;;;;6.95;3.03;;;18.40;99.90;;;;;;6241193;23;20058;-76
2022/09/24 10:33:45;;;;;;;3.65;2.75;;;18.30;99.90;;;;;;6239848;23;20075;-76
2022/09/24 10:36:19;;;;;;;4.32;3.40;;;18.30;99.90;;;;;;6241961;23;20361;-76
2022/09/24 10:38:45;;;;;;;3.10;2.80;;;18.30;99.90;;;;;;6241791;23;20456;-76
2022/09/24 10:41:16;;;;;;;4.18;2.80;;;18.30;99.90;;;;;;6241905;23;20011;-77
2022/09/24 10:43:50;;;;;;;11.02;2.85;;;18.30;99.90;;;;;;6242309;23;19996;-76
2022/09/24 10:46:28;;;;;;;4.20;2.85;;;18.30;99.90;;;;;;6215855;23;20024;-77
2022/09/24 10:49:31;;;;;;;7.47;3.13;;;18.30;99.90;;;;;;6240979;23;20011;-77
2022/09/24 10:52:35;;;;;;;3.88;2.67;;;18.30;99.90;;;;;;6133067;23;20046;-76
2022/09/24 10:55:14;;;;;;;3.38;3.08;;;18.20;99.90;;;;;;6241252;23;20000;-76
2022/09/24 10:57:58;;;;;;;2.90;2.70;;;18.20;99.90;;;;;;6214091;23;20094;-77
2022/09/24 11:00:34;;;;;;;5.47;3.13;;;18.30;99.90;;;;;;6214281;23;20011;-76
2022/09/24 11:03:13;;;;;;;4.75;2.90;;;18.20;99.90;;;;;;6240892;23;20027;-76
2022/09/24 11:06:10;;;;;;;7.47;2.80;;;18.30;99.90;;;;;;6242296;23;20003;-77
2022/09/24 11:09:15;;;;;;;8.90;2.58;;;18.30;99.90;;;;;;6243135;23;20000;-76
2022/09/24 11:11:54;;;;;;;5.90;3.05;;;18.40;99.90;;;;;;6199926;23;20062;-77
2022/09/24 11:14:23;;;;;;;2.30;2.20;;;18.40;99.90;;;;;;6216367;23;20028;-76
2022/09/24 11:17:26;;;;;;;5.53;2.72;;;18.40;99.90;;;;;;6243268;23;20008;-76
2022/09/24 11:20:15;;;;;;;2.42;2.22;;;18.50;99.90;;;;;;6094596;23;20035;-76
2022/09/24 11:23:19;;;;;;;4.85;2.47;;;18.50;99.90;;;;;;6243196;23;20054;-77
2022/09/24 11:26:20;;;;;;;5.97;3.45;;;18.50;99.90;;;;;;6243359;23;20069;-76
2022/09/24 11:29:18;;;;;;;3.63;3.33;;;18.50;99.90;;;;;;6216914;23;20443;-76
2022/09/24 11:32:15;;;;;;;5.38;2.95;;;18.50;99.90;;;;;;6161144;23;20007;-77
2022/09/24 11:35:06;;;;;;;5.75;2.58;;;18.50;99.90;;;;;;6162081;23;20466;-76
2022/09/24 11:37:39;;;;;;;3.42;2.95;;;18.50;99.90;;;;;;6245304;23;20050;-76
2022/09/24 11:40:07;;;;;;;3.45;3.22;;;18.60;99.90;;;;;;6214151;23;20590;-76
2022/09/24 11:42:48;;;;;;;3.47;3.28;;;18.60;99.90;;;;;;6244299;23;20420;-77
2022/09/24 11:45:35;;;;;;;3.10;2.80;;;18.70;99.90;;;;;;6243075;23;20020;-77
2022/09/24 11:48:18;;;;;;;3.58;3.20;;;18.60;99.90;;;;;;6242572;23;20007;-76
2022/09/24 11:50:59;;;;;;;7.32;3.28;;;18.60;99.90;;;;;;6241741;23;20007;-77
2022/09/24 11:53:39;;;;;;;4.78;3.03;;;18.60;99.90;;;;;;6240587;23;20052;-76
2022/09/24 11:56:17;;;;;;;4.63;2.90;;;18.60;99.90;;;;;;6241430;23;20668;-76
2022/09/24 11:59:27;;;;;;;4.90;2.60;;;18.60;99.90;;;;;;6241956;23;20010;-76
2022/09/24 12:01:59;;;;;;;3.28;2.25;;;18.60;99.90;;;;;;6242301;23;20004;-76
2022/09/24 12:04:50;;;;;;;5.40;2.47;;;18.60;99.90;;;;;;6242126;23;20004;-77
2022/09/24 12:07:30;;;;;;;3.83;2.55;;;18.60;99.90;;;;;;6243258;23;20000;-76
2022/09/24 12:10:28;;;;;;;2.83;2.35;;;18.60;99.90;;;;;;6217168;23;20428;-77
2022/09/24 12:13:19;;;;;;;3.97;2.88;;;18.60;99.90;;;;;;6245033;23;20008;-77
2022/09/24 12:15:55;;;;;;;4.40;2.78;;;18.60;99.90;;;;;;6244957;23;20004;-76
2022/09/24 12:18:34;;;;;;;5.35;2.15;;;18.60;99.90;;;;;;6242661;23;20027;-77
2022/09/24 12:21:06;;;;;;;2.38;2.00;;;18.60;99.90;;;;;;6245418;23;20079;-76
2022/09/24 12:23:38;;;;;;;2.38;2.20;;;18.70;99.90;;;;;;6245299;23;20026;-77
2022/09/24 12:26:04;;;;;;;;;;;18.70;99.90;;;;;;6246020;23;20004;-77
2022/09/24 12:34:57;;;;;;;5.95;3.80;;;18.70;99.90;;;;;;6151891;23;20021;-76
2022/09/24 12:37:31;;;;;;;4.38;3.25;;;18.70;99.90;;;;;;6232612;23;20009;-76
2022/09/24 12:40:30;;;;;;;3.22;3.03;;;18.70;99.90;;;;;;6244374;23;20011;-76
2022/09/24 12:43:04;;;;;;;10.68;3.60;;;18.70;99.90;;;;;;6217864;23;20491;-76
2022/09/24 12:45:33;;;;;;;7.40;3.30;;;18.70;99.90;;;;;;6244828;23;20000;-76
2022/09/24 12:48:00;;;;;;;5.13;3.17;;;18.80;99.90;;;;;;6244074;23;20000;-77
2022/09/24 12:50:29;;;;;;;4.40;2.60;;;18.90;99.90;;;;;;6244768;23;20078;-76
2022/09/24 12:52:56;;;;;;;3.03;2.83;;;18.90;99.90;;;;;;6244715;23;19996;-77
2022/09/24 12:55:30;;;;;;;2.72;2.50;;;18.90;99.90;;;;;;6217779;23;20031;-77
2022/09/24 12:58:05;;;;;;;3.58;2.92;;;18.80;99.90;;;;;;6244665;23;20022;-76
2022/09/24 13:00:31;;;;;;;3.20;2.80;;;18.80;99.90;;;;;;6244406;23;20000;-76
2022/09/24 13:02:58;;;;;;;2.53;2.42;;;18.90;99.90;;;;;;6242914;23;20000;-77
2022/09/24 13:22:36;;;;;;;3.67;2.03;;;19.00;99.90;;;;;;6131421;22;1454123;-84
2022/09/24 13:25:08;;;;;;;2.83;2.10;;;19.20;99.90;;;;;;6191610;23;20005;-84
2022/09/24 13:27:37;;;;;;;2.42;2.22;;;19.20;99.90;;;;;;6165134;23;20038;-83
2022/09/24 13:30:05;;;;;;;2.28;2.08;;;19.10;99.90;;;;;;6191601;23;20063;-84
2022/09/24 13:32:57;;;;;;;3.80;2.33;;;19.10;99.90;;;;;;6164869;23;20139;-84
2022/09/24 13:35:30;;;;;;;2.78;2.58;;;19.10;99.90;;;;;;6164907;23;20428;-83
2022/09/24 13:38:49;;;;;;;3.08;2.70;;;19.10;99.90;;;;;;6164969;23;20336;-84
2022/09/24 13:41:34;;;;;;;6.10;2.50;;;19.10;99.90;;;;;;6127135;23;20001;-83
2022/09/24 13:44:06;;;;;;;2.72;2.30;;;19.10;99.90;;;;;;6131123;23;20008;-84
2022/09/24 13:46:33;;;;;;;;;;;19.10;99.90;;;;;;6190730;23;20005;-84